Del Mar, California
Current Conditions -  °F | °C
As of 1:55 PM on Tuesday 25 Nov 2014 (Local Time) from KNKX Reporting Station
Clear Clear  
Wind Chill: 78°   Ceiling: Unl
Heat Index: 78°   Visibility: 10mi
Dew Point:   Wind: 9mph
Humidity: 7%   Direction: 300°WNW
Pressure: 30.26"   Gusts: NA
Location:  32.96°N, 117.27°W
Report Text: KNKX 252155Z 30008KT 10SM CLR 26/M13 A3026 RMK AO2 SLP242 T02561133
Loading
Personal Weather Stations






























Interactive Weather Map New forecast layout! Learn more

10-Day Weather Forecast

Advertisements
Track Severe Weather on mobile